Mudgee, New South Wales

8:16 AM AEDT on February 12, 2016 (GMT +1100)
Itrons Weather Station | | Change Station
CLOSE
Current Station
Personal Weather Station
Location: Mudgee, NEW SOUTH WALES
Elevation: 1490 ft
Nearby Weather Stations

Elev 1490 ft 32.59 °S, 149.57 °E | Updated 6 seconds ago

Clear
Clear
69.3 °F
Feels Like 69.3 °F
N
3.0
Wind Variable Wind from ESE
Gusts 10.0 mph

Today
High -- | Low -- °F
--% Chance of Precip.
Yesterday
High -- | Low -- °F
Precip. -- in
Pressure 30.04 in
Visibility -9999.0 miles
Clouds
Dew Point 60 °F
Humidity 73%
Rainfall 0.00 in
Snow Depth Not available.
6:35 AM 7:56 PM
Waxing Crescent, 14% visible
METAR YMDG 112100Z AUTO 14006KT //// // NCD 20/17 Q1017
Pressure 30.04 in
Visibility -9999.0 miles
Clouds
Dew Point 60 °F
Humidity 73%
Rainfall 0.00 in
Snow Depth Not available.
6:35 AM 7:56 PM
Waxing Crescent, 14% visible
METAR YMDG 112100Z AUTO 14006KT //// // NCD 20/17 Q1017

10-Day Weather Forecast

No radar image for this location.
×

Almanac

Astronomy

Feb. 12, 2016 Rise Set
Actual Time
Civil Twilight
Nautical Twilight
Astronomical Twilight
Moon
Length of Visible Light
Length of Day
Tomorrow will be .
, % of the Moon is Illuminated

Today's Extremes

Country Highs Country Lows

Community

WunderPhotos

Upload Photos

1,892,159 photos uploaded!

WunderBlog® & News

Nearby

Air Quality

  Air Quality AQ Index Pollutant
Not available.

Snow Depth

Station Depth Elevation

Earthquake Activity

City Distance Mag. Time & Date
Minimum magnitude displayed is 2.5.

Coastal Water Temperatures

Place Temperature

Stations

Nearby Weather Stations

Station Location Temp. Windchill Dew Point Humidity Wind Precip. Elev Updated Type